Latest Coastal Weather Observations for Yarram Airport

IDV60701

Issued at 4:52 pm EST Tuesday 25 July 2017 (issued every 10 minutes, with the page automatically refreshed every 10 minutes)

About coastal observations | Map of coastal stations | Coastal observations for VIC | Marine services | Other Formats
Station Details ID: 085151 Name: YARRAM AIRPORT Lat: -38.56 Lon: 146.75 Height: 17.9 m
Data from the previous 72 hours. | See also: Recent months at Yarram Airport
Date/Time
EST
Temp
°C
Wind Pressure Rain since
9am
mm
Weather Cloud Vis
km
Sea
Height
m
Swell
Dir  Spd
kts
Gust
kts
hPa Trend Height
m
Period
s
Dir
25/04:30pm 17.3 WNW 14 21 1009.8 - 0.0 - - - - - - -
25/04:00pm 17.9 WNW 12 18 1009.8 - 0.0 - - - - - - -
25/03:30pm 18.4 WNW 12 19 1009.7 - 0.0 - - - - - - -
25/03:00pm 18.5 WNW 11 14 1010.1 - 0.0 - - - - - - -
25/02:30pm 16.2 W 7 11 1010.8 - 0.0 - - - - - - -
25/02:00pm 17.9 WSW 9 11 1011.0 - 0.0 - - - - - - -
25/01:30pm 17.7 W 10 13 1011.5 - 0.0 - - - - - - -
25/01:00pm 17.5 WNW 12 15 1011.8 - 0.0 - - - - - - -
25/12:30pm 16.8 WNW 16 26 1012.8 - 0.0 - - - - - - -
25/12:06pm 16.7 NW 19 30 1013.0 - 0.0 - - - - - - -
25/12:00pm 17.2 NW 20 29 1013.1 - 0.0 - - - - - - -
25/11:37am 17.8 NW 20 30 1013.4 - 0.0 - - - - - - -
25/11:30am 17.6 NW 21 30 1013.4 - 0.0 - - - - - - -
25/11:00am 17.3 NNW 17 27 1014.0 - 0.0 - - - - - - -
25/10:52am 16.9 NNW 16 27 1013.9 - 0.0 - - - - - - -
25/10:30am 16.6 NNW 17 23 1014.2 - 0.0 - - - - - - -
25/10:00am 16.0 NNW 16 23 1014.4 - 0.0 - - - - - - -
25/09:30am 15.3 NNW 17 24 1014.5 - 0.0 - - - - - - -
25/09:00am 14.5 NNW 14 20 1014.5 - 0.0 - - - - - - -
25/08:30am 13.8 NNW 16 22 1014.5 - 0.0 - - - - - - -
25/08:00am 13.1 NNW 16 22 1014.5 - 0.0 - - - - - - -
25/07:30am 12.7 NNW 15 21 1014.7 - 0.0 - - - - - - -
25/07:00am 12.4 NW 12 19 1014.9 - 0.0 - - - - - - -
25/06:30am 12.1 NNW 13 19 1015.0 - 0.0 - - - - - - -
25/06:00am 11.2 NNW 6 14 1015.2 - 0.0 - - - - - - -
25/05:30am 8.5 NW 2 5 1015.6 - 0.0 - - - - - - -
25/05:00am 8.8 WNW 3 4 1015.6 - 0.0 - - - - - - -
25/04:30am 7.9 W 1 5 1015.9 - 0.0 - - - - - - -
25/04:00am 8.7 WNW 3 5 1016.1 - 0.0 - - - - - - -
25/03:30am 8.7 NW 7 9 1016.6 - 0.0 - - - - - - -
25/03:00am 8.9 WNW 6 9 1016.9 - 0.0 - - - - - - -
25/02:30am 8.9 NW 6 8 1017.0 - 0.0 - - - - - - -
25/02:00am 9.0 WNW 6 8 1017.1 - 0.0 - - - - - - -
25/01:30am 9.6 WNW 7 10 1017.2 - 0.0 - - - - - - -
25/01:00am 9.5 NW 9 11 1017.2 - 0.0 - - - - - - -
25/12:30am 8.9 WNW 6 8 1017.3 - 0.0 - - - - - - -
25/12:00am 9.2 NW 7 9 1017.7 - 0.0 - - - - - - -
 
Date/Time
EST
Temp
°C
Wind Pressure Rain since
9am
mm
Weather Cloud Vis
km
Sea
Height
m
Swell
Dir  Spd
kts
Gust
kts
hPa Trend Height
m
Period
s
Dir
24/11:30pm 8.4 NW 5 6 1018.0 - 0.0 - - - - - - -
24/11:00pm 8.2 NW 5 7 1018.0 - 0.0 - - - - - - -
24/10:30pm 7.4 S 4 5 1018.0 - 0.0 - - - - - - -
24/10:00pm 8.0 NW 5 6 1018.1 - 0.0 - - - - - - -
24/09:30pm 7.3 NW 6 7 1018.2 - 0.0 - - - - - - -
24/09:00pm 7.5 NW 6 7 1018.0 - 0.0 - - - - - - -
24/08:30pm 8.6 NNW 7 9 1017.9 - 0.0 - - - - - - -
24/08:00pm 9.3 NW 7 8 1018.0 - 0.0 - - - - - - -
24/07:30pm 9.8 NW 7 9 1018.0 - 0.0 - - - - - - -
24/07:00pm 8.7 NNW 6 7 1017.8 - 0.0 - - - - - - -
24/06:30pm 7.9 NNW 4 4 1018.0 - 0.0 - - - - - - -
24/06:00pm 8.2 NNW 5 6 1017.7 - 0.0 - - - - - - -
24/05:30pm 9.0 NW 4 6 1017.4 - 0.0 - - - - - - -
24/05:00pm 11.2 W 7 9 1017.2 - 0.0 - - - - - - -
24/04:30pm 12.9 W 9 13 1017.1 - 0.0 - - - - - - -
24/04:00pm 13.6 W 10 15 1017.0 - 0.0 - - - - - - -
24/03:30pm 13.7 WNW 16 21 1017.0 - 0.0 - - - - - - -
24/03:00pm 14.1 W 14 19 1016.9 - 0.0 - - - - - - -
24/02:30pm 13.9 W 16 22 1017.0 - 0.0 - - - - - - -
24/02:00pm 13.8 WNW 17 27 1017.1 - 0.0 - - - - - - -
24/01:55pm 13.8 WNW 17 27 1017.1 - 0.0 - - - - - - -
24/01:30pm 14.0 WNW 14 20 1017.3 - 0.0 - - - - - - -
24/01:00pm 13.4 WNW 14 18 1017.4 - 0.0 - - - - - - -
24/12:30pm 12.4 WNW 14 19 1017.7 - 0.0 - - - - - - -
24/12:00pm 11.9 WNW 14 19 1018.2 - 0.0 - - - - - - -
24/11:30am 12.0 WNW 15 20 1018.5 - 0.0 - - - - - - -
24/11:00am 12.5 WNW 13 17 1018.8 - 0.0 - - - - - - -
24/10:30am 11.5 WNW 11 16 1018.9 - 0.0 - - - - - - -
24/10:00am 10.8 WNW 11 14 1018.7 - 0.0 - - - - - - -
24/09:30am 10.8 WNW 9 12 1018.7 - 0.0 - - - - - - -
24/09:00am 9.3 NW 6 9 1018.4 - 2.0 Recent precip. - - - - - -
24/08:30am 8.8 N 1 4 1018.2 - 2.0 - - - - - - -
24/08:00am 8.2 NW 2 3 1017.9 - 1.8 - - - - - - -
24/07:30am 8.2 W 3 4 1017.8 - 1.6 - - - - - - -
24/07:00am 8.5 W 7 10 1017.5 - 1.6 - - - - - - -
24/06:30am 8.2 W 5 6 1017.2 - 1.4 - - - - - - -
24/06:00am 8.1 NW 8 9 1016.6 - 1.2 - - - - - - -
24/05:30am 8.8 WNW 9 11 1016.4 - 1.2 - - - - - - -
24/05:00am 8.8 WNW 11 14 1016.0 - 1.2 - - - - - - -
24/04:30am 7.9 NW 8 9 1015.7 - 1.0 - - - - - - -
24/04:00am 6.6 NW 7 8 1015.4 - 1.0 - - - - - - -
24/03:30am 7.5 WNW 7 9 1015.4 - 1.0 - - - - - - -
24/03:00am 8.0 WNW 8 9 1015.4 - 1.0 - - - - - - -
24/02:30am 8.0 WNW 7 9 1015.3 - 1.0 - - - - - - -
24/02:00am 8.9 W 8 10 1015.1 - 1.0 - - - - - - -
24/01:30am 8.9 WNW 9 11 1015.0 - 1.0 - - - - - - -
24/01:00am 8.8 WNW 8 10 1014.8 - 1.0 - - - - - - -
24/12:30am 9.3 W 9 12 1014.7 - 1.0 - - - - - - -
24/12:00am 9.4 WNW 7 9 1014.6 - 1.0 Recent precip. - - - - - -
 
Date/Time
EST
Temp
°C
Wind Pressure Rain since
9am
mm
Weather Cloud Vis
km
Sea
Height
m
Swell
Dir  Spd
kts
Gust
kts
hPa Trend Height
m
Period
s
Dir
23/11:30pm 9.5 WNW 9 14 1014.4 - 1.0 - - - - - - -
23/11:00pm 9.5 WNW 11 15 1014.3 - 0.8 - - - - - - -
23/10:30pm 9.8 W 13 17 1014.2 - 0.8 - - - - - - -
23/10:00pm 9.9 W 8 10 1013.9 - 0.0 - - - - - - -
23/09:30pm 10.1 W 8 11 1013.7 - 0.0 - - - - - - -
23/09:00pm 9.7 WNW 8 11 1013.1 - 0.0 - - - - - - -
23/08:30pm 10.6 WNW 12 16 1012.4 - 0.0 - - - - - - -
23/08:00pm 10.5 WNW 14 18 1011.9 - 0.0 - - - - - - -
23/07:30pm 10.3 WNW 13 16 1011.9 - 0.0 - - - - - - -
23/07:00pm 10.6 WNW 14 19 1011.5 - 0.0 - - - - - - -
23/06:30pm 10.2 WNW 10 14 1011.2 - 0.0 - - - - - - -
23/06:00pm 10.4 W 11 14 1010.8 - 0.0 - - - - - - -
23/05:30pm 10.7 WNW 13 18 1010.3 - 0.0 - - - - - - -
23/05:00pm 11.2 WNW 15 20 1009.9 - 0.0 - - - - - - -
23/04:30pm 11.7 WNW 18 26 1009.3 - 0.0 - - - - - - -
23/04:00pm 12.4 WNW 20 28 1009.2 - 0.0 - - - - - - -
23/03:30pm 12.7 WNW 22 32 1008.8 - 0.0 - - - - - - -
23/03:24pm 12.8 WNW 21 32 1008.5 - 0.0 - - - - - - -
23/03:00pm 13.4 WNW 22 30 1008.1 - 0.0 - - - - - - -
23/02:40pm 13.0 WNW 22 32 1007.9 - 0.0 - - - - - - -
23/02:30pm 12.8 WNW 22 28 1007.9 - 0.0 - - - - - - -
23/02:00pm 13.5 WNW 25 31 1007.9 - 0.0 - - - - - - -
23/01:30pm 14.3 WNW 24 34 1007.8 - 0.0 - - - - - - -
23/01:00pm 14.5 WNW 27 38 1007.9 - 0.0 - - - - - - -
23/12:44pm 15.0 W 27 39 1007.9 - 0.0 - - - - - - -
23/12:30pm 15.0 W 27 35 1008.0 - 0.0 - - - - - - -
23/12:00pm 15.2 WNW 26 37 1008.3 - 0.0 - - - - - - -
23/11:30am 14.9 WNW 25 35 1008.8 - 0.0 - - - - - - -
23/11:00am 14.8 WNW 26 40 1009.1 - 0.0 - - - - - - -
23/10:48am 14.6 WNW 23 33 1009.3 - 0.0 - - - - - - -
23/10:30am 14.4 WNW 24 32 1009.3 - 0.0 - - - - - - -
23/10:00am 13.8 WNW 24 34 1009.2 - 0.0 - - - - - - -
23/09:30am 14.0 WNW 21 33 1009.1 - 0.0 - - - - - - -
23/09:23am 13.7 WNW 22 33 1009.0 - 0.0 - - - - - - -
23/09:00am 13.0 WNW 17 24 1009.2 - 0.0 - - - - - - -
23/08:30am 12.1 WNW 16 24 1009.1 - 0.0 - - - - - - -
23/08:00am 12.2 WNW 16 23 1009.1 - 0.0 - - - - - - -
23/07:30am 12.2 WNW 13 17 1008.9 - 0.0 - - - - - - -
23/07:00am 12.4 WNW 14 23 1008.9 - 0.0 - - - - - - -
23/06:30am 13.1 NW 15 23 1008.3 - 0.0 - - - - - - -
23/06:29am 13.2 NW 15 23 1008.2 - 0.0 - - - - - - -
23/06:00am 11.9 NW 11 21 1008.4 - 0.0 - - - - - - -
23/05:30am 11.4 NNW 8 13 1008.3 - 0.0 - - - - - - -
23/05:00am 10.9 N 9 12 1008.4 - 0.0 - - - - - - -
23/04:30am 11.1 N 10 15 1008.7 - 0.0 - - - - - - -
23/04:00am 12.6 NNW 12 20 1009.1 - 0.0 - - - - - - -
23/03:37am 12.7 NNW 17 27 1009.2 - 0.0 - - - - - - -
23/03:30am 12.4 NNW 19 26 1009.0 - 0.0 - - - - - - -
23/03:14am 12.7 NNW 18 28 1009.0 - 0.0 - - - - - - -
23/03:00am 12.6 NNW 19 25 1009.3 - 0.0 - - - - - - -
23/02:31am 12.9 NNW 19 29 1009.9 - 0.0 - - - - - - -
23/02:30am 12.9 NNW 20 29 1009.9 - 0.0 - - - - - - -
23/02:04am 12.7 NNW 15 29 1010.2 - 0.0 - - - - - - -
23/02:00am 12.5 NNW 15 23 1010.3 - 0.0 - - - - - - -
23/01:30am 12.7 NNW 15 21 1010.6 - 0.0 - - - - - - -
23/01:00am 12.6 NNW 15 24 1010.8 - 0.0 - - - - - - -
23/12:30am 12.6 NW 18 24 1011.0 - 0.0 - - - - - - -
23/12:07am 12.7 NW 18 28 1011.0 - 0.0 - - - - - - -
23/12:00am 12.5 NW 19 27 1011.1 - 0.0 - - - - - - -
 
Date/Time
EST
Temp
°C
Wind Pressure Rain since
9am
mm
Weather Cloud Vis
km
Sea
Height
m
Swell
Dir  Spd
kts
Gust
kts
hPa Trend Height
m
Period
s
Dir
22/11:30pm 13.1 NW 19 29 1011.4 - 0.0 - - - - - - -
22/11:16pm 13.0 NW 16 28 1011.5 - 0.0 - - - - - - -
22/11:00pm 12.4 NW 14 22 1011.6 - 0.0 - - - - - - -
22/10:30pm 12.5 WNW 10 16 1011.9 - 0.0 - - - - - - -
22/10:00pm 11.8 WNW 8 13 1011.9 - 0.0 - - - - - - -
22/09:30pm 7.0 WSW 2 5 1012.1 - 0.0 - - - - - - -
22/09:00pm 6.3 N 4 5 1011.9 - 0.0 - - - - - - -
22/08:30pm 8.2 N 1 3 1011.9 - 0.0 - - - - - - -
22/08:00pm 8.6 CALM 0 0 1012.2 - 0.0 - - - - - - -
22/07:30pm 9.0 SE 2 7 1012.3 - 0.0 - - - - - - -
22/07:00pm 11.3 NE 3 6 1012.5 - 0.0 - - - - - - -
22/06:30pm 11.3 N 7 8 1012.8 - 0.0 - - - - - - -
22/06:00pm 12.2 N 7 9 1012.8 - 0.0 - - - - - - -
22/05:30pm 13.1 NNE 5 8 1012.7 - 0.0 - - - - - - -
22/05:00pm 13.4 NNW 6 10 1012.6 - 0.0 - - - - - - -

Other Formats:

Comma delimited format used in spreadsheet applications
http://www.bom.gov.au/fwo/IDV60701/IDV60701.95890.axf

JavaScript Object Notation format (JSON) in row-major order
http://www.bom.gov.au/fwo/IDV60701/IDV60701.95890.json